Terminal Aerodrome Forecast
Issued by NWS

Home | Current Version | Previous Version | Text Only | Print | Product List | Glossary On
Versions: 1 2 3 4 5 6 7 8 9 10 11 12 13 14
000
FTUS42 KTBW 272321
TAFLAL
TAF
KLAL 272321Z 2800/2824 08005KT P6SM VCSH SCT040 BKN090
     FM280300 08007KT P6SM SCT090 BKN250
     FM281500 08011G16KT P6SM FEW025 SCT250
     FM281800 08013G18KT P6SM VCTS BKN040CB
     FM282300 09014G20KT P6SM VCTS SCT035CB SCT200
      AMD NOT SKED 2802/2811=

USA.gov is the U.S. government's official web portal to all federal, state and local government web resources and services.